createdAt,value
2023-12-30T00:01:23.944Z,76867.25
2023-12-30T00:02:57.375Z,76869.25
2023-12-30T00:04:30.833Z,76881.09
2023-12-30T00:06:06.950Z,76863.31
2023-12-30T00:07:39.731Z,76869.25
2023-12-30T00:09:12.848Z,76857.38
2023-12-30T00:10:46.721Z,76889.00
2023-12-30T00:12:19.732Z,76877.16
2023-12-30T00:13:52.795Z,76865.28
2023-12-30T00:15:25.306Z,76879.13
2023-12-30T00:16:58.379Z,76857.38
2023-12-30T00:18:32.119Z,76861.34
2023-12-30T00:20:07.679Z,76867.25
2023-12-30T00:21:40.748Z,76853.41
2023-12-30T00:23:14.932Z,76869.25
2023-12-30T00:24:51.174Z,76861.34
2023-12-30T00:26:25.583Z,76879.13
2023-12-30T00:28:12.990Z,76892.97
2023-12-30T00:29:46.275Z,76891.00
2023-12-30T00:31:26.791Z,76879.13
2023-12-30T00:33:00.391Z,76904.84
2023-12-30T00:34:36.031Z,76912.75
2023-12-30T00:36:09.828Z,76914.72
2023-12-30T00:37:43.036Z,76924.59
2023-12-30T00:39:16.593Z,76924.59
2023-12-30T00:40:51.137Z,76928.56
2023-12-30T00:42:29.249Z,76944.38
2023-12-30T00:44:02.750Z,76976.03
2023-12-30T00:45:36.684Z,76979.97
2023-12-30T00:47:10.132Z,76983.94
2023-12-30T00:48:44.609Z,76999.75
2023-12-30T00:50:22.515Z,77001.72
2023-12-30T00:51:56.087Z,77009.66
2023-12-30T00:53:30.666Z,77009.66
2023-12-30T00:55:04.533Z,77015.56
2023-12-30T00:56:38.055Z,77013.59
2023-12-30T00:58:11.297Z,76999.75
2023-12-30T00:59:49.105Z,76999.75
2023-12-30T01:01:22.767Z,77005.69
2023-12-30T01:02:56.506Z,77007.66
2023-12-30T01:04:30.170Z,76991.84
2023-12-30T01:06:03.304Z,76995.81
2023-12-30T01:07:36.694Z,76987.88
2023-12-30T01:09:10.767Z,77003.72
2023-12-30T01:10:44.374Z,77007.66
2023-12-30T01:12:26.671Z,77047.22
2023-12-30T01:13:59.916Z,77068.97
2023-12-30T01:15:33.908Z,77142.16
2023-12-30T01:17:07.236Z,77173.78
2023-12-30T01:18:41.791Z,77223.22
2023-12-30T01:20:16.241Z,77245.00
2023-12-30T01:21:50.258Z,77229.16
2023-12-30T01:23:23.959Z,77197.53
2023-12-30T01:24:58.997Z,77195.53
2023-12-30T01:26:32.637Z,77193.56
2023-12-30T01:28:06.729Z,77183.69
2023-12-30T01:29:41.426Z,77179.72
2023-12-30T01:31:16.523Z,77152.03
2023-12-30T01:32:50.458Z,77152.03
2023-12-30T01:34:26.445Z,77207.41
2023-12-30T01:36:01.005Z,77207.41
2023-12-30T01:37:35.197Z,77221.25
2023-12-30T01:39:08.540Z,77207.41
2023-12-30T01:40:45.217Z,77241.03
2023-12-30T01:42:19.105Z,77215.31
2023-12-30T01:43:52.525Z,77235.09
2023-12-30T01:45:26.231Z,77185.66
2023-12-30T01:47:00.408Z,77195.53
2023-12-30T01:48:34.835Z,77185.66
2023-12-30T01:50:09.506Z,77173.78
2023-12-30T01:51:43.132Z,77161.94
2023-12-30T01:53:18.086Z,77144.13
2023-12-30T01:54:54.770Z,77128.31
2023-12-30T01:56:29.473Z,77114.47
2023-12-30T01:58:02.988Z,77086.78
2023-12-30T01:59:37.456Z,77096.66
2023-12-30T02:01:11.604Z,77078.88
2023-12-30T02:02:45.552Z,77082.81
2023-12-30T02:04:19.089Z,77076.88
2023-12-30T02:05:55.509Z,77045.25
2023-12-30T02:07:29.106Z,77065.03
2023-12-30T02:09:04.142Z,77051.19
2023-12-30T02:10:38.071Z,77043.25
2023-12-30T02:12:11.141Z,77055.13
2023-12-30T02:13:44.951Z,77037.34
2023-12-30T02:15:26.564Z,77027.44
2023-12-30T02:17:01.089Z,77011.63
2023-12-30T02:18:54.701Z,77019.53
2023-12-30T02:20:28.432Z,77035.34
2023-12-30T02:22:01.792Z,77025.47
2023-12-30T02:23:35.247Z,77031.41
2023-12-30T02:25:09.491Z,77007.66
2023-12-30T02:26:42.589Z,77007.66
2023-12-30T02:28:16.436Z,76987.88
2023-12-30T02:29:50.283Z,76989.88
2023-12-30T02:31:24.029Z,76987.88
2023-12-30T02:32:58.972Z,76972.06
2023-12-30T02:34:32.376Z,76956.25
2023-12-30T02:36:07.502Z,76991.84
2023-12-30T02:37:41.104Z,77049.19
2023-12-30T02:39:14.762Z,77059.09
2023-12-30T02:40:49.916Z,77074.91
2023-12-30T02:42:23.285Z,77057.09
2023-12-30T02:44:02.088Z,77033.38
2023-12-30T02:45:35.277Z,77057.09
2023-12-30T02:47:08.671Z,77047.22
2023-12-30T02:48:44.119Z,77035.34
2023-12-30T02:50:17.662Z,77011.63
2023-12-30T02:51:51.040Z,77005.69
2023-12-30T02:53:23.936Z,77017.56
2023-12-30T02:54:57.263Z,76993.81
2023-12-30T02:56:30.522Z,76995.81
2023-12-30T02:58:04.071Z,76979.97
2023-12-30T02:59:37.257Z,76987.88
2023-12-30T03:01:10.864Z,76991.84
2023-12-30T03:02:44.903Z,76978.00
2023-12-30T03:04:19.744Z,76989.88
2023-12-30T03:05:53.252Z,76991.84
2023-12-30T03:07:26.838Z,76989.88
2023-12-30T03:09:01.057Z,77019.53
2023-12-30T03:10:35.058Z,77013.59
2023-12-30T03:12:10.425Z,76993.81
2023-12-30T03:13:47.287Z,76985.91
2023-12-30T03:15:23.257Z,76987.88
2023-12-30T03:16:56.804Z,76987.88
2023-12-30T03:18:30.616Z,76993.81
2023-12-30T03:20:05.246Z,76983.94
2023-12-30T03:21:40.358Z,76981.97
2023-12-30T03:23:13.409Z,76968.13
2023-12-30T03:24:46.702Z,76954.28
2023-12-30T03:26:20.210Z,76968.13
2023-12-30T03:27:53.465Z,76960.22
2023-12-30T03:29:26.598Z,76968.13
2023-12-30T03:31:00.147Z,76966.13
2023-12-30T03:32:33.488Z,76962.19
2023-12-30T03:34:06.525Z,76962.19
2023-12-30T03:35:39.517Z,76968.13
2023-12-30T03:37:12.280Z,76968.13
2023-12-30T03:38:45.864Z,76974.06
2023-12-30T03:40:19.111Z,76989.88
2023-12-30T03:41:52.273Z,76999.75
2023-12-30T03:43:25.478Z,77003.72
2023-12-30T03:44:58.620Z,77027.44
2023-12-30T03:46:31.420Z,77013.59
2023-12-30T03:48:04.528Z,77007.66
2023-12-30T03:49:37.404Z,77015.56
2023-12-30T03:51:10.758Z,77023.50
2023-12-30T03:52:43.509Z,77011.63
2023-12-30T03:54:16.346Z,77021.50
2023-12-30T03:55:49.875Z,77031.41
2023-12-30T03:57:22.588Z,77033.38
2023-12-30T03:58:55.788Z,77051.19
2023-12-30T04:00:28.782Z,77055.13
2023-12-30T04:02:01.531Z,77047.22
2023-12-30T04:03:35.276Z,77055.13
2023-12-30T04:05:08.655Z,77070.94
2023-12-30T04:06:41.702Z,77102.59
2023-12-30T04:08:14.920Z,77102.59
2023-12-30T04:09:47.985Z,77140.16
2023-12-30T04:11:20.864Z,77132.25
2023-12-30T04:12:53.980Z,77161.94
2023-12-30T04:14:26.849Z,77165.88
2023-12-30T04:15:59.606Z,77173.78
2023-12-30T04:17:32.592Z,77167.84
2023-12-30T04:19:05.358Z,77150.06
2023-12-30T04:20:38.494Z,77175.78
2023-12-30T04:22:11.408Z,77199.50
2023-12-30T04:23:48.067Z,77211.38
2023-12-30T04:25:29.942Z,77181.69
2023-12-30T04:27:03.313Z,77185.66
2023-12-30T04:28:36.779Z,77177.75
2023-12-30T04:30:10.543Z,77181.69
2023-12-30T04:31:43.693Z,77157.97
2023-12-30T04:33:18.514Z,77148.09
2023-12-30T04:34:55.299Z,77118.41
2023-12-30T04:36:28.989Z,77132.25
2023-12-30T04:38:02.219Z,77118.41
2023-12-30T04:39:35.301Z,77108.53
2023-12-30T04:41:10.955Z,77094.69
2023-12-30T04:42:44.814Z,77102.59
2023-12-30T04:44:18.122Z,77086.78
2023-12-30T04:45:51.371Z,77063.03
2023-12-30T04:47:24.339Z,77063.03
2023-12-30T04:48:57.208Z,77065.03
2023-12-30T04:50:30.183Z,77049.19
2023-12-30T04:52:03.357Z,77053.16
2023-12-30T04:53:36.271Z,77015.56
2023-12-30T04:55:09.104Z,77019.53
2023-12-30T04:56:41.873Z,77003.72
2023-12-30T04:58:14.580Z,77009.66
2023-12-30T04:59:47.257Z,77005.69
2023-12-30T05:01:20.157Z,77027.44
2023-12-30T05:02:53.185Z,76999.75
2023-12-30T05:04:26.370Z,77047.22
2023-12-30T05:05:59.877Z,77035.34
2023-12-30T05:07:33.356Z,77025.47
2023-12-30T05:09:07.036Z,77025.47
2023-12-30T05:10:40.285Z,77037.34
2023-12-30T05:12:13.665Z,77047.22
2023-12-30T05:13:50.302Z,77029.41
2023-12-30T05:15:23.705Z,77035.34
2023-12-30T05:16:57.112Z,77031.41
2023-12-30T05:18:30.057Z,77031.41
2023-12-30T05:20:03.507Z,77037.34
2023-12-30T05:21:38.152Z,77055.13
2023-12-30T05:23:11.584Z,77059.09
2023-12-30T05:24:44.396Z,77070.94
2023-12-30T05:26:17.637Z,77057.09
2023-12-30T05:27:51.050Z,77041.28
2023-12-30T05:29:25.022Z,77033.38
2023-12-30T05:30:58.478Z,77031.41
2023-12-30T05:32:35.639Z,77063.03
2023-12-30T05:34:10.532Z,77078.88
2023-12-30T05:35:46.575Z,77067.00
2023-12-30T05:37:22.498Z,77053.16
2023-12-30T05:38:56.063Z,77025.47
2023-12-30T05:40:28.749Z,77047.22
2023-12-30T05:42:01.869Z,77049.19
2023-12-30T05:43:34.614Z,77070.94
2023-12-30T05:45:07.915Z,77072.94
2023-12-30T05:46:41.324Z,77088.75
2023-12-30T05:48:15.380Z,77078.88
2023-12-30T05:49:48.471Z,77088.75
2023-12-30T05:51:23.198Z,77094.69
2023-12-30T05:52:57.838Z,77068.97
2023-12-30T05:54:30.773Z,77068.97
2023-12-30T05:56:03.867Z,77068.97
2023-12-30T05:57:39.538Z,77070.94
2023-12-30T05:59:12.643Z,77086.78
2023-12-30T06:00:45.465Z,77106.56
2023-12-30T06:02:18.286Z,77122.38
2023-12-30T06:03:51.296Z,77120.41
2023-12-30T06:05:24.557Z,77098.63
2023-12-30T06:06:57.588Z,77080.84
2023-12-30T06:08:30.651Z,77154.00
2023-12-30T06:10:03.548Z,77169.84
2023-12-30T06:11:36.710Z,77169.84
2023-12-30T06:13:10.442Z,77138.19
2023-12-30T06:14:46.591Z,77098.63
2023-12-30T06:16:19.905Z,77076.88
2023-12-30T06:17:53.130Z,77059.09
2023-12-30T06:19:26.344Z,77039.31
2023-12-30T06:21:00.628Z,77043.25
2023-12-30T06:22:34.409Z,77023.50
2023-12-30T06:24:07.694Z,77021.50
2023-12-30T06:25:41.601Z,76964.16
2023-12-30T06:27:14.575Z,76932.53
2023-12-30T06:28:48.762Z,76887.03
2023-12-30T06:30:22.005Z,76730.81
2023-12-30T06:31:55.337Z,76649.75
2023-12-30T06:33:31.741Z,76596.34
2023-12-30T06:35:04.984Z,76584.47
2023-12-30T06:36:39.941Z,76572.63
2023-12-30T06:38:16.605Z,76588.44
2023-12-30T06:39:49.341Z,76610.19
2023-12-30T06:41:22.662Z,76610.19
2023-12-30T06:42:55.590Z,76633.91
2023-12-30T06:44:28.683Z,76620.06
2023-12-30T06:46:04.983Z,76647.75
2023-12-30T06:47:37.855Z,76667.53
2023-12-30T06:49:11.071Z,76693.25
2023-12-30T06:50:44.303Z,76683.34
2023-12-30T06:52:19.577Z,76699.19
2023-12-30T06:53:52.437Z,76716.97
2023-12-30T06:55:29.076Z,76715.00
2023-12-30T06:57:08.011Z,76738.72
2023-12-30T06:58:43.761Z,76722.91
2023-12-30T07:00:19.594Z,76762.44
2023-12-30T07:01:53.321Z,76754.53
2023-12-30T07:03:26.664Z,76778.28
2023-12-30T07:05:04.891Z,76869.25
2023-12-30T07:06:38.627Z,76805.97
2023-12-30T07:08:12.097Z,76802.00
2023-12-30T07:09:45.304Z,76778.28
2023-12-30T07:11:18.554Z,76762.44
2023-12-30T07:12:51.963Z,76772.34
2023-12-30T07:14:28.615Z,76758.50
2023-12-30T07:16:02.508Z,76750.59
2023-12-30T07:17:36.223Z,76778.28
2023-12-30T07:19:09.502Z,76774.31
2023-12-30T07:20:42.501Z,76802.00
2023-12-30T07:22:15.405Z,76782.22
2023-12-30T07:23:48.376Z,76774.31
2023-12-30T07:25:21.254Z,76790.13
2023-12-30T07:26:54.495Z,76796.06
2023-12-30T07:28:27.371Z,76782.22
2023-12-30T07:29:59.909Z,76786.19
2023-12-30T07:31:32.933Z,76837.59
2023-12-30T07:33:06.322Z,76863.31
2023-12-30T07:34:39.547Z,76875.16
2023-12-30T07:36:12.454Z,76910.75
2023-12-30T07:37:49.890Z,76853.41
2023-12-30T07:39:23.661Z,76813.88
2023-12-30T07:40:57.447Z,76772.34
2023-12-30T07:42:30.470Z,76766.41
2023-12-30T07:44:03.800Z,76764.44
2023-12-30T07:45:37.050Z,76766.41
2023-12-30T07:47:10.304Z,76784.22
2023-12-30T07:48:44.191Z,76766.41
2023-12-30T07:50:17.648Z,76794.09
2023-12-30T07:51:51.063Z,76776.28
2023-12-30T07:53:24.656Z,76770.38
2023-12-30T07:54:57.697Z,76768.38
2023-12-30T07:56:30.639Z,76778.28
2023-12-30T07:58:03.623Z,76794.09
2023-12-30T07:59:36.783Z,76788.16
2023-12-30T08:01:10.780Z,76762.44
2023-12-30T08:02:46.222Z,76768.38
2023-12-30T08:04:19.323Z,76776.28
2023-12-30T08:05:53.026Z,76762.44
2023-12-30T08:07:26.894Z,76786.19
2023-12-30T08:09:00.073Z,76790.13
2023-12-30T08:10:34.626Z,76792.13
2023-12-30T08:12:08.459Z,76770.38
2023-12-30T08:13:42.035Z,76774.31
2023-12-30T08:15:15.233Z,76762.44
2023-12-30T08:16:51.350Z,76738.72
2023-12-30T08:18:24.852Z,76792.13
2023-12-30T08:19:58.058Z,76794.09
2023-12-30T08:21:31.892Z,76817.81
2023-12-30T08:23:05.630Z,76825.72
2023-12-30T08:24:38.949Z,76900.88
2023-12-30T08:26:11.850Z,76900.88
2023-12-30T08:27:45.077Z,76841.56
2023-12-30T08:29:18.313Z,76865.28
2023-12-30T08:30:53.256Z,76885.06
2023-12-30T08:32:26.354Z,76896.94
2023-12-30T08:33:59.787Z,76819.81
2023-12-30T08:35:32.826Z,76790.13
2023-12-30T08:37:10.177Z,76770.38
2023-12-30T08:38:43.744Z,76744.66
2023-12-30T08:40:17.192Z,76736.75
2023-12-30T08:41:51.415Z,76734.78
2023-12-30T08:43:24.531Z,76689.28
2023-12-30T08:45:00.330Z,76703.13
2023-12-30T08:46:33.566Z,76669.50
2023-12-30T08:48:07.035Z,76716.97
2023-12-30T08:49:40.757Z,76730.81
2023-12-30T08:51:14.082Z,76744.66
2023-12-30T08:52:47.152Z,76734.78
2023-12-30T08:54:20.617Z,76726.84
2023-12-30T08:55:54.448Z,76691.25
2023-12-30T08:57:27.797Z,76681.38
2023-12-30T08:59:00.962Z,76693.25
2023-12-30T09:00:34.271Z,76724.88
2023-12-30T09:02:07.823Z,76715.00
2023-12-30T09:03:41.427Z,76679.41
2023-12-30T09:05:17.772Z,76675.44
2023-12-30T09:06:51.143Z,76663.59
2023-12-30T09:08:24.596Z,76647.75
2023-12-30T09:09:58.212Z,76718.94
2023-12-30T09:11:31.037Z,76675.44
2023-12-30T09:13:04.744Z,76695.22
2023-12-30T09:14:37.672Z,76782.22
2023-12-30T09:16:11.145Z,76760.47
2023-12-30T09:17:44.323Z,76766.41
2023-12-30T09:19:18.203Z,76713.03
2023-12-30T09:20:52.263Z,76685.34
2023-12-30T09:22:29.144Z,76691.25
2023-12-30T09:24:03.238Z,76675.44
2023-12-30T09:25:39.338Z,76673.47
2023-12-30T09:27:12.939Z,76709.06
2023-12-30T09:28:46.116Z,76711.03
2023-12-30T09:30:21.056Z,76740.69
2023-12-30T09:31:55.116Z,76738.72
2023-12-30T09:33:28.946Z,76718.94
2023-12-30T09:35:05.047Z,76699.19
2023-12-30T09:36:38.358Z,76716.97
2023-12-30T09:38:11.539Z,76770.38
2023-12-30T09:39:44.504Z,76746.63
2023-12-30T09:41:19.324Z,76790.13
2023-12-30T09:42:52.712Z,76760.47
2023-12-30T09:44:26.950Z,76823.75
2023-12-30T09:46:02.306Z,76823.75
2023-12-30T09:47:36.583Z,76877.16
2023-12-30T09:49:11.849Z,76788.16
2023-12-30T09:50:45.982Z,76817.81
2023-12-30T09:52:19.814Z,76821.78
2023-12-30T09:53:53.143Z,76776.28
2023-12-30T09:55:27.196Z,76837.59
2023-12-30T09:57:00.955Z,76827.72
2023-12-30T09:58:34.292Z,76813.88
2023-12-30T10:00:09.150Z,76813.88
2023-12-30T10:01:42.277Z,76786.19
2023-12-30T10:03:15.694Z,76754.53
2023-12-30T10:04:51.270Z,76746.63
2023-12-30T10:06:24.871Z,76752.56
2023-12-30T10:07:58.799Z,76754.53
2023-12-30T10:09:32.100Z,76726.84
2023-12-30T10:11:09.898Z,76695.22
2023-12-30T10:12:43.173Z,76705.09
2023-12-30T10:14:16.234Z,76693.25
2023-12-30T10:15:49.508Z,76720.94
2023-12-30T10:17:22.268Z,76691.25
2023-12-30T10:18:57.673Z,76711.03
2023-12-30T10:20:31.310Z,76705.09
2023-12-30T10:22:04.070Z,76734.78
2023-12-30T10:23:37.354Z,76740.69
2023-12-30T10:25:10.906Z,76770.38
2023-12-30T10:26:44.816Z,76758.50
2023-12-30T10:28:18.634Z,76770.38
2023-12-30T10:30:00.494Z,76790.13
2023-12-30T10:31:35.979Z,76831.66
2023-12-30T10:33:11.581Z,76798.03
2023-12-30T10:34:44.926Z,76792.13
2023-12-30T10:36:19.988Z,76803.97
2023-12-30T10:38:01.262Z,76809.91
2023-12-30T10:39:39.222Z,76815.84
2023-12-30T10:41:12.155Z,76821.78
2023-12-30T10:42:45.895Z,76904.84
2023-12-30T10:44:19.225Z,76873.19
2023-12-30T10:46:07.197Z,76918.69
2023-12-30T10:47:45.271Z,76928.56
2023-12-30T10:49:20.862Z,76930.53
2023-12-30T10:50:57.355Z,76914.72
2023-12-30T10:52:30.806Z,76950.31
2023-12-30T10:54:10.875Z,76962.19
2023-12-30T10:55:52.156Z,76974.06
2023-12-30T10:57:29.176Z,76964.16
2023-12-30T10:59:05.355Z,76948.34
2023-12-30T11:00:39.466Z,76938.44
2023-12-30T11:02:12.863Z,76948.34
2023-12-30T11:03:45.646Z,76968.13
2023-12-30T11:05:26.114Z,76964.16
2023-12-30T11:07:07.303Z,76979.97
2023-12-30T11:08:45.783Z,76964.16
2023-12-30T11:10:20.170Z,76924.59
2023-12-30T11:11:54.927Z,76894.94
2023-12-30T11:13:27.876Z,76930.53
2023-12-30T11:15:05.534Z,76916.69
2023-12-30T11:16:38.385Z,76912.75
2023-12-30T11:18:15.190Z,76896.94
2023-12-30T11:19:48.689Z,76892.97
2023-12-30T11:21:41.401Z,76922.63
2023-12-30T11:23:15.946Z,76908.78
2023-12-30T11:24:49.104Z,76918.69
2023-12-30T11:26:23.295Z,76976.03
2023-12-30T11:28:12.196Z,76978.00
2023-12-30T11:29:45.226Z,76991.84
2023-12-30T11:31:19.186Z,76956.25
2023-12-30T11:32:53.679Z,77003.72
2023-12-30T11:34:30.374Z,77047.22
2023-12-30T11:36:05.143Z,77017.56
2023-12-30T11:37:40.842Z,76983.94
2023-12-30T11:39:17.039Z,76976.03
2023-12-30T11:40:52.095Z,76979.97
2023-12-30T11:42:33.970Z,76974.06
2023-12-30T11:44:16.682Z,76978.00
2023-12-30T11:45:49.928Z,76999.75
2023-12-30T11:47:23.920Z,76968.13
2023-12-30T11:49:00.515Z,76974.06
2023-12-30T11:50:33.642Z,76979.97
2023-12-30T11:52:09.593Z,76983.94
2023-12-30T11:53:43.058Z,76974.06
2023-12-30T11:55:16.162Z,76958.22
2023-12-30T11:56:49.327Z,76993.81
2023-12-30T11:58:22.174Z,77009.66
2023-12-30T11:59:57.125Z,76979.97
2023-12-30T12:01:30.485Z,76968.13
2023-12-30T12:03:05.580Z,76987.88
2023-12-30T12:04:38.627Z,76991.84
2023-12-30T12:06:15.271Z,76972.06
2023-12-30T12:07:48.420Z,77039.31
2023-12-30T12:09:21.330Z,77055.13
2023-12-30T12:10:54.824Z,77041.28
2023-12-30T12:12:35.316Z,77070.94
2023-12-30T12:14:08.476Z,77029.41
2023-12-30T12:15:41.270Z,77039.31
2023-12-30T12:17:14.161Z,77043.25
2023-12-30T12:18:47.206Z,77025.47
2023-12-30T12:20:21.605Z,77027.44
2023-12-30T12:22:00.032Z,77031.41
2023-12-30T12:23:32.772Z,77061.06
2023-12-30T12:25:06.087Z,77011.63
2023-12-30T12:26:39.192Z,77033.38
2023-12-30T12:28:16.663Z,77068.97
2023-12-30T12:29:53.335Z,77035.34
2023-12-30T12:31:32.127Z,77059.09
2023-12-30T12:33:06.000Z,77049.19
2023-12-30T12:34:39.456Z,77076.88
2023-12-30T12:36:12.516Z,77106.56
2023-12-30T12:37:45.297Z,77070.94
2023-12-30T12:39:19.155Z,77084.78
2023-12-30T12:40:52.086Z,77082.81
2023-12-30T12:42:30.505Z,77039.31
2023-12-30T12:44:04.594Z,77084.78
2023-12-30T12:45:37.189Z,77080.84
2023-12-30T12:47:10.742Z,77094.69
2023-12-30T12:48:43.459Z,77092.72
2023-12-30T12:50:16.572Z,77108.53
2023-12-30T12:51:52.724Z,77102.59
2023-12-30T12:53:25.794Z,77138.19
2023-12-30T12:55:01.673Z,77122.38
2023-12-30T12:56:34.796Z,77100.63
2023-12-30T12:58:07.845Z,77130.28
2023-12-30T12:59:42.022Z,77108.53
2023-12-30T13:01:14.952Z,77082.81
2023-12-30T13:02:48.104Z,77043.25
2023-12-30T13:04:23.125Z,77045.25
2023-12-30T13:05:56.376Z,77059.09
2023-12-30T13:07:30.012Z,77059.09
2023-12-30T13:09:14.421Z,77067.00
2023-12-30T13:10:51.977Z,77053.16
2023-12-30T13:12:24.939Z,77082.81
2023-12-30T13:13:58.557Z,77100.63
2023-12-30T13:15:31.894Z,77098.63
2023-12-30T13:17:13.575Z,77061.06
2023-12-30T13:18:46.416Z,77074.91
2023-12-30T13:20:23.077Z,77023.50
2023-12-30T13:21:57.200Z,77009.66
2023-12-30T13:23:30.340Z,77019.53
2023-12-30T13:25:03.944Z,77029.41
2023-12-30T13:26:40.343Z,76999.75
2023-12-30T13:28:13.417Z,77027.44
2023-12-30T13:29:47.109Z,77039.31
2023-12-30T13:31:25.991Z,77065.03
2023-12-30T13:33:01.470Z,77049.19
2023-12-30T13:34:40.863Z,77059.09
2023-12-30T13:36:17.405Z,77031.41
2023-12-30T13:37:50.649Z,77047.22
2023-12-30T13:39:23.817Z,77047.22
2023-12-30T13:41:01.454Z,77067.00
2023-12-30T13:42:34.379Z,77027.44
2023-12-30T13:44:10.256Z,77033.38
2023-12-30T13:45:50.054Z,77029.41
2023-12-30T13:47:37.799Z,77015.56
2023-12-30T13:49:11.526Z,76983.94
2023-12-30T13:50:53.860Z,76987.88
2023-12-30T13:52:29.814Z,77007.66
2023-12-30T13:54:04.653Z,77013.59
2023-12-30T13:55:37.988Z,77031.41
2023-12-30T13:57:14.638Z,77019.53
2023-12-30T13:58:48.634Z,77043.25
2023-12-30T14:00:22.391Z,77074.91
2023-12-30T14:01:59.047Z,77049.19
2023-12-30T14:03:32.539Z,77072.94
2023-12-30T14:05:18.506Z,77049.19
2023-12-30T14:06:51.171Z,77007.66
2023-12-30T14:08:38.371Z,76972.06
2023-12-30T14:10:13.502Z,76968.13
2023-12-30T14:11:50.903Z,76972.06
2023-12-30T14:13:25.169Z,76938.44
2023-12-30T14:14:59.890Z,76987.88
2023-12-30T14:16:32.983Z,76976.03
2023-12-30T14:18:06.445Z,76983.94
2023-12-30T14:19:40.272Z,76966.13
2023-12-30T14:21:13.868Z,76979.97
2023-12-30T14:22:47.304Z,76976.03
2023-12-30T14:24:21.658Z,77021.50
2023-12-30T14:25:54.581Z,76983.94
2023-12-30T14:27:28.496Z,76991.84
2023-12-30T14:29:04.491Z,77011.63
2023-12-30T14:30:38.136Z,77007.66
2023-12-30T14:32:13.281Z,77009.66
2023-12-30T14:33:49.609Z,76991.84
2023-12-30T14:35:23.780Z,76991.84
2023-12-30T14:36:57.091Z,76997.78
2023-12-30T14:38:30.285Z,77007.66
2023-12-30T14:40:04.322Z,77033.38
2023-12-30T14:41:37.405Z,77027.44
2023-12-30T14:43:14.892Z,77041.28
2023-12-30T14:44:48.115Z,77007.66
2023-12-30T14:46:22.024Z,77033.38
2023-12-30T14:47:54.849Z,77043.25
2023-12-30T14:49:28.938Z,77027.44
2023-12-30T14:51:03.519Z,77031.41
2023-12-30T14:52:43.091Z,77003.72
2023-12-30T14:54:18.942Z,77007.66
2023-12-30T14:55:52.290Z,77013.59
2023-12-30T14:57:25.788Z,77003.72
2023-12-30T14:59:01.677Z,77015.56
2023-12-30T15:00:38.673Z,77011.63
2023-12-30T15:02:11.949Z,76979.97
2023-12-30T15:03:45.575Z,76983.94
2023-12-30T15:05:23.868Z,77005.69
2023-12-30T15:06:57.673Z,77001.72
2023-12-30T15:08:30.881Z,77007.66
2023-12-30T15:10:04.655Z,76991.84
2023-12-30T15:11:38.834Z,76997.78
2023-12-30T15:13:12.278Z,76981.97
2023-12-30T15:14:45.359Z,76981.97
2023-12-30T15:16:19.774Z,76964.16
2023-12-30T15:17:58.756Z,77035.34
2023-12-30T15:19:35.057Z,77009.66
2023-12-30T15:21:10.596Z,76989.88
2023-12-30T15:22:43.720Z,76995.81
2023-12-30T15:24:18.253Z,76981.97
2023-12-30T15:25:51.522Z,76995.81
2023-12-30T15:27:24.275Z,76999.75
2023-12-30T15:28:57.415Z,77001.72
2023-12-30T15:30:30.518Z,77011.63
2023-12-30T15:32:06.561Z,77001.72
2023-12-30T15:33:40.007Z,76983.94
2023-12-30T15:35:13.237Z,76976.03
2023-12-30T15:36:46.902Z,77017.56
2023-12-30T15:38:19.988Z,76995.81
2023-12-30T15:39:53.563Z,76995.81
2023-12-30T15:41:26.259Z,77003.72
2023-12-30T15:42:59.103Z,77007.66
2023-12-30T15:44:35.331Z,77013.59
2023-12-30T15:46:09.259Z,77023.50
2023-12-30T15:47:43.931Z,76999.75
2023-12-30T15:49:16.818Z,76974.06
2023-12-30T15:50:49.842Z,76966.13
2023-12-30T15:52:22.957Z,76956.25
2023-12-30T15:53:55.921Z,76940.44
2023-12-30T15:55:29.089Z,76968.13
2023-12-30T15:57:02.332Z,76983.94
2023-12-30T15:58:37.855Z,76993.81
2023-12-30T16:00:11.686Z,76993.81
2023-12-30T16:01:44.869Z,76989.88
2023-12-30T16:03:18.721Z,76993.81
2023-12-30T16:04:52.084Z,76997.78
2023-12-30T16:06:25.579Z,77021.50
2023-12-30T16:07:59.002Z,76991.84
2023-12-30T16:09:32.384Z,76999.75
2023-12-30T16:11:05.956Z,76997.78
2023-12-30T16:12:39.155Z,76981.97
2023-12-30T16:14:12.546Z,77013.59
2023-12-30T16:15:46.562Z,76991.84
2023-12-30T16:17:19.859Z,76952.28
2023-12-30T16:18:52.998Z,76972.06
2023-12-30T16:20:31.070Z,76974.06
2023-12-30T16:22:04.847Z,76962.19
2023-12-30T16:23:37.906Z,76948.34
2023-12-30T16:25:14.273Z,76974.06
2023-12-30T16:26:47.256Z,76983.94
2023-12-30T16:28:20.809Z,76976.03
2023-12-30T16:29:54.291Z,76978.00
2023-12-30T16:31:27.836Z,76976.03
2023-12-30T16:33:02.201Z,76972.06
2023-12-30T16:34:38.725Z,76968.13
2023-12-30T16:36:12.902Z,76970.09
2023-12-30T16:37:47.038Z,76964.16
2023-12-30T16:39:20.995Z,76987.88
2023-12-30T16:40:54.693Z,77005.69
2023-12-30T16:42:30.912Z,76983.94
2023-12-30T16:44:04.158Z,76968.13
2023-12-30T16:45:42.060Z,76978.00
2023-12-30T16:47:18.605Z,76981.97
2023-12-30T16:48:55.253Z,76940.44
2023-12-30T16:50:28.435Z,76940.44
2023-12-30T16:52:04.739Z,76948.34
2023-12-30T16:53:38.111Z,76942.41
2023-12-30T16:55:12.868Z,76940.44
2023-12-30T16:56:49.911Z,76950.31
2023-12-30T16:58:23.812Z,76934.50
2023-12-30T16:59:57.337Z,76944.38
2023-12-30T17:01:30.760Z,76956.25
2023-12-30T17:03:04.466Z,76940.44
2023-12-30T17:04:38.335Z,76950.31
2023-12-30T17:06:12.942Z,76976.03
2023-12-30T17:07:46.284Z,76948.34
2023-12-30T17:09:22.639Z,76954.28
2023-12-30T17:11:02.411Z,76964.16
2023-12-30T17:12:39.084Z,76978.00
2023-12-30T17:14:12.332Z,76940.44
2023-12-30T17:15:49.893Z,76944.38
2023-12-30T17:17:28.966Z,76916.69
2023-12-30T17:19:02.406Z,76944.38
2023-12-30T17:20:41.137Z,76928.56
2023-12-30T17:22:17.633Z,76950.31
2023-12-30T17:23:50.556Z,76906.81
2023-12-30T17:25:27.772Z,76891.00
2023-12-30T17:27:06.521Z,76948.34
2023-12-30T17:28:40.067Z,76920.66
2023-12-30T17:30:15.632Z,76942.41
2023-12-30T17:31:49.726Z,76944.38
2023-12-30T17:33:23.235Z,76932.53
2023-12-30T17:34:59.376Z,76896.94
2023-12-30T17:36:32.489Z,76920.66
2023-12-30T17:38:05.938Z,76926.59
2023-12-30T17:39:42.170Z,76914.72
2023-12-30T17:41:16.752Z,76908.78
2023-12-30T17:42:56.795Z,76936.47
2023-12-30T17:44:31.112Z,76900.88
2023-12-30T17:46:05.100Z,76894.94
2023-12-30T17:47:38.722Z,76896.94
2023-12-30T17:49:11.904Z,76898.91
2023-12-30T17:50:46.101Z,76879.13
2023-12-30T17:52:19.129Z,76875.16
2023-12-30T17:53:55.217Z,76889.00
2023-12-30T17:55:32.860Z,76896.94
2023-12-30T17:57:14.692Z,76908.78
2023-12-30T17:58:47.999Z,76871.22
2023-12-30T18:00:21.243Z,76849.47
2023-12-30T18:01:54.464Z,76849.47
2023-12-30T18:03:27.912Z,76877.16
2023-12-30T18:05:04.414Z,76885.06
2023-12-30T18:06:38.573Z,76835.63
2023-12-30T18:08:12.742Z,76841.56
2023-12-30T18:09:48.175Z,76849.47
2023-12-30T18:11:25.028Z,76849.47
2023-12-30T18:12:59.530Z,76865.28
2023-12-30T18:14:35.485Z,76869.25
2023-12-30T18:16:09.504Z,76849.47
2023-12-30T18:17:48.791Z,76843.53
2023-12-30T18:19:25.682Z,76843.53
2023-12-30T18:20:59.284Z,76821.78
2023-12-30T18:22:32.810Z,76819.81
2023-12-30T18:24:06.018Z,76802.00
2023-12-30T18:25:39.235Z,76786.19
2023-12-30T18:27:13.172Z,76809.91
2023-12-30T18:28:47.640Z,76819.81
2023-12-30T18:30:20.380Z,76803.97